createdAt,value
2022-12-20T00:02:11.628Z,100819.28
2022-12-20T00:04:40.230Z,100816.78
2022-12-20T00:07:08.502Z,100817.63
2022-12-20T00:09:37.594Z,100815.00
2022-12-20T00:12:06.260Z,100804.56
2022-12-20T00:14:37.349Z,100815.91
2022-12-20T00:17:05.573Z,100807.13
2022-12-20T00:19:35.219Z,100805.38
2022-12-20T00:22:03.467Z,100802.75
2022-12-20T00:24:33.022Z,100796.63
2022-12-20T00:27:01.226Z,100792.22
2022-12-20T00:29:32.081Z,100784.28
2022-12-20T00:32:00.309Z,100793.06
2022-12-20T00:34:28.828Z,100778.97
2022-12-20T00:36:58.796Z,100771.88
2022-12-20T00:39:26.992Z,100781.72
2022-12-20T00:41:55.369Z,100778.25
2022-12-20T00:44:23.770Z,100776.47
2022-12-20T00:46:52.035Z,100784.38
2022-12-20T00:49:20.322Z,100782.66
2022-12-20T00:51:48.682Z,100792.28
2022-12-20T00:54:20.882Z,100790.53
2022-12-20T00:56:49.472Z,100803.69
2022-12-20T00:59:17.932Z,100794.94
2022-12-20T01:01:46.265Z,100796.78
2022-12-20T01:04:14.495Z,100793.28
2022-12-20T01:06:43.774Z,100784.50
2022-12-20T01:09:12.688Z,100784.50
2022-12-20T01:11:42.527Z,100781.88
2022-12-20T01:14:13.965Z,100784.56
2022-12-20T01:16:45.124Z,100791.72
2022-12-20T01:19:18.528Z,100773.34
2022-12-20T01:21:47.371Z,100792.78
2022-12-20T01:24:17.362Z,100787.56
2022-12-20T01:26:48.014Z,100782.41
2022-12-20T01:29:16.714Z,100770.97
2022-12-20T01:31:46.394Z,100773.75
2022-12-20T01:34:15.373Z,100773.81
2022-12-20T01:36:43.452Z,100745.69
2022-12-20T01:39:14.956Z,100759.94
2022-12-20T01:41:45.003Z,100758.16
2022-12-20T01:44:50.493Z,100758.25
2022-12-20T01:47:20.351Z,100760.03
2022-12-20T01:49:52.393Z,100761.75
2022-12-20T01:52:24.315Z,100764.38
2022-12-20T01:54:56.911Z,100760.00
2022-12-20T01:57:30.849Z,100750.34
2022-12-20T01:59:59.961Z,100745.94
2022-12-20T02:02:33.597Z,100747.72
2022-12-20T02:05:01.857Z,100730.13
2022-12-20T02:07:37.258Z,100731.88
2022-12-20T02:10:06.902Z,100728.41
2022-12-20T02:12:41.026Z,100732.75
2022-12-20T02:15:26.577Z,100734.44
2022-12-20T02:18:06.612Z,100728.34
2022-12-20T02:21:08.498Z,100731.78
2022-12-20T02:23:53.962Z,100725.66
2022-12-20T02:26:44.968Z,100708.13
2022-12-20T02:29:24.928Z,100701.09
2022-12-20T02:32:04.127Z,100707.38
2022-12-20T02:34:36.529Z,100704.81
2022-12-20T02:37:04.646Z,100697.88
2022-12-20T02:39:36.414Z,100698.78
2022-12-20T02:42:07.620Z,100687.44
2022-12-20T02:44:56.608Z,100695.31
2022-12-20T02:47:32.285Z,100690.09
2022-12-20T02:50:01.624Z,100688.34
2022-12-20T02:52:32.067Z,100690.97
2022-12-20T02:55:01.818Z,100686.63
2022-12-20T02:57:39.130Z,100683.09
2022-12-20T03:00:11.733Z,100677.88
2022-12-20T03:03:01.596Z,100679.66
2022-12-20T03:05:35.756Z,100687.66
2022-12-20T03:08:06.268Z,100671.91
2022-12-20T03:10:34.618Z,100665.78
2022-12-20T03:13:02.723Z,100667.56
2022-12-20T03:15:33.270Z,100665.81
2022-12-20T03:18:05.479Z,100663.19
2022-12-20T03:20:34.281Z,100661.50
2022-12-20T03:23:02.594Z,100660.63
2022-12-20T03:25:30.875Z,100665.00
2022-12-20T03:28:03.199Z,100664.13
2022-12-20T03:30:31.787Z,100661.53
2022-12-20T03:32:59.905Z,100660.63
2022-12-20T03:35:32.107Z,100655.38
2022-12-20T03:38:01.115Z,100649.25
2022-12-20T03:40:29.462Z,100646.66
2022-12-20T03:42:58.177Z,100656.28
2022-12-20T03:45:26.339Z,100658.94
2022-12-20T03:47:54.734Z,100640.56
2022-12-20T03:50:32.333Z,100646.75
2022-12-20T03:53:02.548Z,100665.16
2022-12-20T03:55:30.889Z,100661.63
2022-12-20T03:57:59.203Z,100661.75
2022-12-20T04:00:34.763Z,100660.88
2022-12-20T04:03:23.311Z,100667.03
2022-12-20T04:05:52.792Z,100674.91
2022-12-20T04:08:21.503Z,100674.94
2022-12-20T04:11:10.761Z,100671.41
2022-12-20T04:13:41.661Z,100673.09
2022-12-20T04:16:11.417Z,100670.44
2022-12-20T04:18:39.571Z,100664.31
2022-12-20T04:21:13.788Z,100658.16
2022-12-20T04:23:46.624Z,100658.13
2022-12-20T04:26:15.077Z,100642.31
2022-12-20T04:28:45.824Z,100639.69
2022-12-20T04:31:18.514Z,100630.91
2022-12-20T04:33:51.534Z,100633.53
2022-12-20T04:36:22.519Z,100634.41
2022-12-20T04:38:54.151Z,100627.38
2022-12-20T04:41:26.985Z,100628.25
2022-12-20T04:45:56.375Z,100610.72
2022-12-20T04:51:16.770Z,100623.94
2022-12-20T04:53:48.092Z,100620.47
2022-12-20T04:56:29.864Z,100619.63
2022-12-20T04:59:04.905Z,100616.16
2022-12-20T05:01:34.950Z,100611.78
2022-12-20T05:04:03.843Z,100610.09
2022-12-20T05:06:38.677Z,100606.56
2022-12-20T05:09:07.071Z,100616.19
2022-12-20T05:11:35.790Z,100624.13
2022-12-20T05:14:07.293Z,100629.34
2022-12-20T05:16:39.192Z,100620.59
2022-12-20T05:19:08.379Z,100623.25
2022-12-20T05:21:58.648Z,100617.13
2022-12-20T05:24:50.709Z,100613.66
2022-12-20T05:27:28.829Z,100611.88
2022-12-20T05:29:57.135Z,100609.22
2022-12-20T05:32:29.535Z,100603.97
2022-12-20T05:35:00.163Z,100611.00
2022-12-20T05:37:31.803Z,100607.50
2022-12-20T05:40:11.214Z,100604.91
2022-12-20T05:42:40.621Z,100610.19
2022-12-20T05:45:11.235Z,100600.56
2022-12-20T05:47:49.685Z,100606.72
2022-12-20T05:50:19.155Z,100596.16
2022-12-20T05:53:11.405Z,100591.78
2022-12-20T05:55:48.724Z,100590.88
2022-12-20T05:58:19.688Z,100588.34
2022-12-20T06:00:56.784Z,100598.88
2022-12-20T06:03:28.467Z,100591.81
2022-12-20T06:06:01.084Z,100584.81
2022-12-20T06:08:32.697Z,100577.78
2022-12-20T06:11:05.138Z,100588.34
2022-12-20T06:13:40.327Z,100580.47
2022-12-20T06:16:10.444Z,100576.09
2022-12-20T06:18:40.041Z,100576.97
2022-12-20T06:21:10.523Z,100578.78
2022-12-20T06:23:38.663Z,100571.78
2022-12-20T06:26:10.106Z,100569.19
2022-12-20T06:28:52.628Z,100548.13
2022-12-20T06:31:34.850Z,100538.47
2022-12-20T06:34:04.644Z,100555.97
2022-12-20T06:36:36.276Z,100563.91
2022-12-20T06:39:09.413Z,100556.91
2022-12-20T06:41:42.970Z,100567.44
2022-12-20T06:44:13.152Z,100571.81
2022-12-20T06:46:41.319Z,100570.06
2022-12-20T06:49:11.704Z,100566.53
2022-12-20T06:51:40.114Z,100581.44
2022-12-20T06:54:08.330Z,100581.47
2022-12-20T06:56:41.187Z,100577.97
2022-12-20T06:59:11.906Z,100585.88
2022-12-20T07:01:40.314Z,100582.38
2022-12-20T07:04:08.481Z,100574.53
2022-12-20T07:06:38.306Z,100572.78
2022-12-20T07:09:09.405Z,100584.19
2022-12-20T07:11:39.481Z,100541.13
2022-12-20T07:14:07.974Z,100548.22
2022-12-20T07:16:37.583Z,100558.78
2022-12-20T07:19:06.179Z,100553.47
2022-12-20T07:21:34.493Z,100549.13
2022-12-20T07:24:04.018Z,100557.00
2022-12-20T07:26:32.292Z,100563.13
2022-12-20T07:29:00.738Z,100559.66
2022-12-20T07:31:29.189Z,100563.13
2022-12-20T07:33:57.421Z,100564.88
2022-12-20T07:36:25.524Z,100556.94
2022-12-20T07:38:54.022Z,100554.34
2022-12-20T07:41:25.140Z,100542.00
2022-12-20T07:43:53.260Z,100566.66
2022-12-20T07:46:23.885Z,100564.91
2022-12-20T07:48:53.104Z,100557.00
2022-12-20T07:51:26.421Z,100564.03
2022-12-20T07:54:00.141Z,100563.16
2022-12-20T07:56:39.023Z,100557.00
2022-12-20T07:59:11.163Z,100551.78
2022-12-20T08:01:40.294Z,100542.13
2022-12-20T08:04:12.885Z,100533.34
2022-12-20T08:06:44.187Z,100525.44
2022-12-20T08:09:15.954Z,100532.50
2022-12-20T08:11:50.089Z,100522.88
2022-12-20T08:14:20.589Z,100519.38
2022-12-20T08:16:48.729Z,100526.41
2022-12-20T08:19:17.042Z,100526.41
2022-12-20T08:21:49.489Z,100528.19
2022-12-20T08:24:17.646Z,100520.31
2022-12-20T08:26:47.058Z,100523.81
2022-12-20T08:29:15.139Z,100515.03
2022-12-20T08:31:50.041Z,100514.16
2022-12-20T08:34:19.245Z,100520.34
2022-12-20T08:36:47.322Z,100518.59
2022-12-20T08:39:15.528Z,100517.72
2022-12-20T08:41:43.739Z,100523.88
2022-12-20T08:44:13.233Z,100493.97
2022-12-20T08:46:42.001Z,100506.28
2022-12-20T08:49:10.070Z,100505.44
2022-12-20T08:51:38.270Z,100495.75
2022-12-20T08:54:06.691Z,100492.25
2022-12-20T08:56:34.970Z,100469.41
2022-12-20T08:59:03.475Z,100482.56
2022-12-20T09:01:35.729Z,100494.00
2022-12-20T09:04:05.110Z,100486.97
2022-12-20T09:06:33.380Z,100502.81
2022-12-20T09:09:02.381Z,100484.34
2022-12-20T09:11:30.885Z,100476.44
2022-12-20T09:14:00.001Z,100485.25
2022-12-20T09:16:30.375Z,100501.06
2022-12-20T09:19:05.681Z,100508.97
2022-12-20T09:21:35.651Z,100507.19
2022-12-20T09:24:03.935Z,100509.81
2022-12-20T09:26:32.403Z,100523.03
2022-12-20T09:29:02.264Z,100509.81
2022-12-20T09:31:30.681Z,100504.53
2022-12-20T09:34:01.188Z,100501.88
2022-12-20T09:36:30.782Z,100490.44
2022-12-20T09:39:01.726Z,100500.13
2022-12-20T09:41:37.108Z,100494.84
2022-12-20T09:46:57.158Z,100491.25
2022-12-20T09:49:29.107Z,100484.13
2022-12-20T09:52:26.379Z,100476.19
2022-12-20T09:55:02.139Z,100470.00
2022-12-20T09:57:41.482Z,100467.31
2022-12-20T10:00:14.592Z,100477.88
2022-12-20T10:02:58.706Z,100470.81
2022-12-20T10:05:41.542Z,100468.19
2022-12-20T10:08:22.523Z,100469.16
2022-12-20T10:10:57.682Z,100465.63
2022-12-20T10:13:49.899Z,100467.44
2022-12-20T10:16:34.884Z,100458.59
2022-12-20T10:19:15.890Z,100462.09
2022-12-20T10:21:52.762Z,100471.78
2022-12-20T10:24:26.220Z,100470.03
2022-12-20T10:26:55.157Z,100474.41
2022-12-20T10:29:23.729Z,100462.94
2022-12-20T10:31:56.176Z,100462.16
2022-12-20T10:34:27.103Z,100465.69
2022-12-20T10:37:13.302Z,100457.75
2022-12-20T10:39:43.231Z,100452.50
2022-12-20T10:42:27.366Z,100442.78
2022-12-20T10:44:57.703Z,100461.22
2022-12-20T10:47:39.739Z,100440.06
2022-12-20T10:50:20.681Z,100454.00
2022-12-20T10:53:15.382Z,100433.63
2022-12-20T10:55:44.302Z,100414.22
2022-12-20T10:58:16.962Z,100414.22
2022-12-20T11:00:46.102Z,100412.38
2022-12-20T11:03:19.779Z,100407.94
2022-12-20T11:05:57.990Z,100407.91
2022-12-20T11:08:39.129Z,100400.88
2022-12-20T11:11:22.173Z,100399.97
2022-12-20T11:13:52.150Z,100401.78
2022-12-20T11:16:27.096Z,100405.25
2022-12-20T11:19:03.926Z,100411.31
2022-12-20T11:21:43.947Z,100391.81
2022-12-20T11:24:15.893Z,100401.56
2022-12-20T11:26:57.510Z,100387.28
2022-12-20T11:29:46.363Z,100386.38
2022-12-20T11:32:27.199Z,100377.53
2022-12-20T11:35:04.250Z,100381.16
2022-12-20T11:37:37.941Z,100377.50
2022-12-20T11:40:20.222Z,100381.78
2022-12-20T11:43:00.915Z,100379.94
2022-12-20T11:45:38.640Z,100373.78
2022-12-20T11:48:32.127Z,100364.13
2022-12-20T11:51:07.672Z,100350.88
2022-12-20T11:53:44.698Z,100341.13
2022-12-20T11:56:19.755Z,100348.25
2022-12-20T11:58:54.461Z,100323.56
2022-12-20T12:01:27.315Z,100321.78
2022-12-20T12:04:06.154Z,100334.22
2022-12-20T12:06:40.836Z,100337.66
2022-12-20T12:09:19.444Z,100313.94
2022-12-20T12:12:06.784Z,100320.16
2022-12-20T12:14:49.979Z,100320.16
2022-12-20T12:17:30.737Z,100318.44
2022-12-20T12:20:10.411Z,100326.22
2022-12-20T12:22:41.584Z,100318.41
2022-12-20T12:25:16.559Z,100329.81
2022-12-20T12:27:45.009Z,100322.66
2022-12-20T12:30:15.768Z,100319.09
2022-12-20T12:32:48.809Z,100311.16
2022-12-20T12:35:46.454Z,100301.50
2022-12-20T12:38:30.842Z,100285.56
2022-12-20T12:41:19.828Z,100279.31
2022-12-20T12:43:51.331Z,100275.59
2022-12-20T12:46:26.906Z,100278.81
2022-12-20T12:49:01.273Z,100272.44
2022-12-20T12:51:34.873Z,100278.38
2022-12-20T12:54:04.149Z,100263.16
2022-12-20T12:56:45.874Z,100262.91
2022-12-20T12:59:40.941Z,100258.19
2022-12-20T13:02:35.526Z,100250.66
2022-12-20T13:05:36.206Z,100242.19
2022-12-20T13:08:05.921Z,100250.81
2022-12-20T13:11:02.033Z,100250.69
2022-12-20T13:13:31.663Z,100264.69
2022-12-20T13:16:14.845Z,100255.63
2022-12-20T13:19:14.649Z,100240.41
2022-12-20T13:21:46.587Z,100228.88
2022-12-20T13:24:50.495Z,100241.59
2022-12-20T13:27:28.317Z,100256.72
2022-12-20T13:30:28.993Z,100256.81
2022-12-20T13:33:25.246Z,100253.34
2022-12-20T13:36:29.723Z,100243.72
2022-12-20T13:39:02.597Z,100238.50
2022-12-20T13:41:45.163Z,100244.78
2022-12-20T13:44:29.647Z,100246.66
2022-12-20T13:47:03.771Z,100241.59
2022-12-20T13:49:39.040Z,100231.41
2022-12-20T13:52:22.687Z,100243.84
2022-12-20T13:54:55.471Z,100251.25
2022-12-20T13:57:29.588Z,100251.47
2022-12-20T14:00:06.465Z,100233.91
2022-12-20T14:02:42.563Z,100226.06
2022-12-20T14:05:17.809Z,100233.19
2022-12-20T14:07:49.039Z,100229.69
2022-12-20T14:10:20.800Z,100240.25
2022-12-20T14:12:51.303Z,100237.63
2022-12-20T14:15:28.970Z,100238.53
2022-12-20T14:17:59.027Z,100228.91
2022-12-20T14:20:32.723Z,100237.59
2022-12-20T14:23:06.526Z,100224.34
2022-12-20T14:25:43.600Z,100219.72
2022-12-20T14:28:26.780Z,100217.75
2022-12-20T14:30:56.377Z,100214.00
2022-12-20T14:33:31.489Z,100203.22
2022-12-20T14:36:09.362Z,100211.94
2022-12-20T14:38:37.720Z,100214.50
2022-12-20T14:41:06.051Z,100210.13
2022-12-20T14:43:37.688Z,100213.69
2022-12-20T14:47:58.550Z,100205.84
2022-12-20T14:50:30.774Z,100182.91
2022-12-20T14:52:59.583Z,100195.44
2022-12-20T14:55:34.142Z,100185.88
2022-12-20T14:58:02.498Z,100192.16
2022-12-20T15:00:36.944Z,100194.94
2022-12-20T15:03:20.835Z,100194.09
2022-12-20T15:05:58.401Z,100193.34
2022-12-20T15:08:36.930Z,100187.25
2022-12-20T15:11:23.056Z,100181.94
2022-12-20T15:14:01.347Z,100193.53
2022-12-20T15:16:38.140Z,100198.88
2022-12-20T15:19:19.144Z,100207.78
2022-12-20T15:21:54.471Z,100199.06
2022-12-20T15:24:32.128Z,100189.41
2022-12-20T15:27:11.612Z,100192.97
2022-12-20T15:29:49.783Z,100181.59
2022-12-20T15:32:33.079Z,100179.88
2022-12-20T15:35:17.902Z,100182.53
2022-12-20T15:37:54.959Z,100179.09
2022-12-20T15:40:31.764Z,100181.75
2022-12-20T15:43:08.822Z,100175.56
2022-12-20T15:45:46.857Z,100166.72
2022-12-20T15:48:27.503Z,100180.81
2022-12-20T15:51:05.713Z,100164.88
2022-12-20T15:53:41.310Z,100158.69
2022-12-20T15:56:20.611Z,100172.72
2022-12-20T15:58:54.350Z,100170.91
2022-12-20T16:01:38.125Z,100166.50
2022-12-20T16:04:17.996Z,100172.72
2022-12-20T16:06:57.992Z,100173.66
2022-12-20T16:09:36.850Z,100117.69
2022-12-20T16:12:18.852Z,100178.91
2022-12-20T16:14:58.410Z,100176.16
2022-12-20T16:17:35.264Z,100184.94
2022-12-20T16:20:11.323Z,100177.81
2022-12-20T16:22:46.968Z,100177.81
2022-12-20T16:25:34.086Z,100185.78
2022-12-20T16:28:12.027Z,100184.94
2022-12-20T16:30:53.658Z,100176.16
2022-12-20T16:33:31.992Z,100181.50
2022-12-20T16:36:09.356Z,100182.38
2022-12-20T16:38:47.129Z,100170.06
2022-12-20T16:41:20.648Z,100166.53
2022-12-20T16:43:56.335Z,100164.81
2022-12-20T16:46:31.283Z,100163.06
2022-12-20T16:49:07.567Z,100165.84
2022-12-20T16:51:46.568Z,100168.53
2022-12-20T16:54:28.388Z,100159.75
2022-12-20T16:57:06.013Z,100166.88
2022-12-20T16:59:43.735Z,100157.22
2022-12-20T17:02:31.358Z,100157.25
2022-12-20T17:05:09.489Z,100154.59
2022-12-20T17:07:47.256Z,100156.41
2022-12-20T17:10:22.536Z,100156.47
2022-12-20T17:12:59.731Z,100156.41
2022-12-20T17:15:36.335Z,100150.22
2022-12-20T17:18:11.641Z,100152.00
2022-12-20T17:20:45.911Z,100151.06
2022-12-20T17:23:21.968Z,100144.72
2022-12-20T17:26:01.681Z,100140.38
2022-12-20T17:28:35.599Z,100141.28
2022-12-20T17:31:16.895Z,100135.09
2022-12-20T17:33:51.487Z,100129.00
2022-12-20T17:36:23.280Z,100136.06
2022-12-20T17:38:52.560Z,100142.28
2022-12-20T17:41:28.353Z,100137.03
2022-12-20T17:43:57.894Z,100138.75
2022-12-20T17:46:26.352Z,100140.47
2022-12-20T17:48:54.466Z,100143.13
2022-12-20T17:51:24.118Z,100154.59
2022-12-20T17:53:54.208Z,100144.00
2022-12-20T17:56:26.824Z,100145.78
2022-12-20T17:58:55.507Z,100134.34
2022-12-20T18:01:25.354Z,100137.13
2022-12-20T18:04:04.958Z,100138.00
2022-12-20T18:06:37.665Z,100137.09
2022-12-20T18:09:08.226Z,100129.16
2022-12-20T18:11:39.995Z,100122.97
2022-12-20T18:14:11.547Z,100130.06
2022-12-20T18:16:40.388Z,100127.41
2022-12-20T18:19:17.032Z,100127.41
2022-12-20T18:21:45.056Z,100090.59
2022-12-20T18:24:14.566Z,100116.03
2022-12-20T18:26:44.683Z,100119.53
2022-12-20T18:29:12.777Z,100119.53
2022-12-20T18:31:41.361Z,100116.03
2022-12-20T18:34:11.040Z,100122.22
2022-12-20T18:36:39.626Z,100125.75
2022-12-20T18:39:09.387Z,100117.81
2022-12-20T18:41:37.960Z,100112.56
2022-12-20T18:44:11.599Z,100107.31
2022-12-20T18:46:40.752Z,100107.22
2022-12-20T18:49:10.258Z,100116.06
2022-12-20T18:51:38.497Z,100125.81
2022-12-20T18:54:09.384Z,100124.91
2022-12-20T18:56:39.306Z,100121.38
2022-12-20T18:59:11.821Z,100117.03
2022-12-20T19:01:43.738Z,100126.81
2022-12-20T19:04:14.325Z,100116.28
2022-12-20T19:06:45.170Z,100122.50
2022-12-20T19:09:15.534Z,100112.84
2022-12-20T19:11:45.191Z,100125.22
2022-12-20T19:14:15.498Z,100109.38
2022-12-20T19:16:45.155Z,100118.22
2022-12-20T19:19:13.228Z,100107.63
2022-12-20T19:21:42.711Z,100105.84
2022-12-20T19:24:12.215Z,100112.97
2022-12-20T19:26:42.443Z,100119.13
2022-12-20T19:29:11.586Z,100111.19
2022-12-20T19:31:41.024Z,100110.34
2022-12-20T19:34:13.456Z,100117.31
2022-12-20T19:36:43.179Z,100128.78
2022-12-20T19:39:17.918Z,100126.09
2022-12-20T19:42:07.485Z,100118.13
2022-12-20T19:47:54.181Z,100129.56
2022-12-20T19:50:22.607Z,100124.34
2022-12-20T19:52:52.633Z,100120.84
2022-12-20T19:55:20.852Z,100120.91
2022-12-20T19:57:48.849Z,100122.75
2022-12-20T20:00:19.985Z,100123.66
2022-12-20T20:02:48.195Z,100121.09
2022-12-20T20:05:18.706Z,100130.03
2022-12-20T20:07:47.388Z,100128.38
2022-12-20T20:10:18.153Z,100123.22
2022-12-20T20:12:48.427Z,100124.22
2022-12-20T20:15:17.115Z,100119.97
2022-12-20T20:17:46.183Z,100131.47
2022-12-20T20:20:15.080Z,100133.28
2022-12-20T20:22:44.855Z,100135.09
2022-12-20T20:25:12.932Z,100130.78
2022-12-20T20:27:41.006Z,100121.13
2022-12-20T20:30:11.134Z,100131.69
2022-12-20T20:32:39.515Z,100128.19
2022-12-20T20:35:08.205Z,100129.94
2022-12-20T20:37:39.890Z,100122.94
2022-12-20T20:40:10.820Z,100126.44
2022-12-20T20:42:38.998Z,100115.84
2022-12-20T20:45:08.416Z,100112.34
2022-12-20T20:47:36.583Z,100118.50
2022-12-20T20:50:08.366Z,100120.31
2022-12-20T20:52:36.547Z,100115.00
2022-12-20T20:55:05.383Z,100107.06
2022-12-20T20:57:34.842Z,100110.56
2022-12-20T21:00:03.695Z,100108.78
2022-12-20T21:02:33.206Z,100112.31
2022-12-20T21:05:58.655Z,100111.41
2022-12-20T21:07:52.037Z,100111.41
2022-12-20T21:10:20.605Z,100114.03
2022-12-20T21:12:50.159Z,100107.03
2022-12-20T21:15:23.441Z,100110.53
2022-12-20T21:17:52.430Z,100098.19
2022-12-20T21:20:26.004Z,100099.94
2022-12-20T21:22:55.103Z,100099.94
2022-12-20T21:25:25.371Z,100085.81
2022-12-20T21:27:54.995Z,100083.16
2022-12-20T21:30:25.050Z,100082.31
2022-12-20T21:32:55.659Z,100077.03
2022-12-20T21:35:24.050Z,100065.50
2022-12-20T21:37:52.235Z,100068.09
2022-12-20T21:40:20.908Z,100068.06
2022-12-20T21:42:48.998Z,100074.19
2022-12-20T21:45:21.652Z,100079.44
2022-12-20T21:47:49.866Z,100078.56
2022-12-20T21:50:18.248Z,100078.53
2022-12-20T21:52:46.781Z,100073.97
2022-12-20T21:55:14.990Z,100080.03
2022-12-20T21:57:44.221Z,100079.06
2022-12-20T22:00:13.311Z,100079.03
2022-12-20T22:02:45.451Z,100070.16
2022-12-20T22:05:15.326Z,100068.41
2022-12-20T22:07:43.775Z,100072.69
2022-12-20T22:10:12.154Z,100062.03
2022-12-20T22:12:40.238Z,100068.19
2022-12-20T22:15:09.594Z,100069.00
2022-12-20T22:17:42.096Z,100060.13
2022-12-20T22:20:11.775Z,100075.13
2022-12-20T22:22:39.968Z,100076.84
2022-12-20T22:25:12.794Z,100075.81
2022-12-20T22:27:41.096Z,100066.03
2022-12-20T22:30:10.367Z,100045.13
2022-12-20T22:32:38.423Z,100071.31
2022-12-20T22:35:07.481Z,100070.34
2022-12-20T22:37:39.343Z,100080.94
2022-12-20T22:40:09.620Z,100073.84
2022-12-20T22:42:40.301Z,100072.97
2022-12-20T22:45:09.861Z,100077.28
2022-12-20T22:47:41.674Z,100064.97
2022-12-20T22:50:11.512Z,100071.19
2022-12-20T22:52:43.223Z,100078.19
2022-12-20T22:55:13.472Z,100056.13
2022-12-20T22:57:41.487Z,100066.69
2022-12-20T23:00:13.176Z,100062.38
2022-12-20T23:02:42.055Z,100058.78
2022-12-20T23:05:10.786Z,100057.94
2022-12-20T23:07:38.924Z,100059.72
2022-12-20T23:10:32.121Z,100061.53
2022-12-20T23:13:17.773Z,100057.22
2022-12-20T23:15:48.184Z,100065.97
2022-12-20T23:18:16.768Z,100063.28
2022-12-20T23:21:08.092Z,100049.13
2022-12-20T23:23:36.324Z,100053.50
2022-12-20T23:26:13.499Z,100052.66
2022-12-20T23:28:41.846Z,100060.56
2022-12-20T23:31:11.262Z,100048.09
2022-12-20T23:33:43.472Z,100048.97
2022-12-20T23:36:12.697Z,100043.69
2022-12-20T23:38:41.095Z,100045.50
2022-12-20T23:41:16.915Z,100051.63
2022-12-20T23:43:44.972Z,100055.13
2022-12-20T23:46:15.708Z,100042.81
2022-12-20T23:48:44.629Z,100043.59
2022-12-20T23:51:13.189Z,100042.72
2022-12-20T23:53:41.477Z,100046.19
2022-12-20T23:56:14.894Z,100041.78
2022-12-20T23:58:43.228Z,100039.19
